Time;durP1;ratioP1;P1;durP2;ratioP2;P2;SDS_P1;SDS_P2;PMS_P1;PMS_P2;Temp;Humidity;BMP_temperature;BMP_pressure;BME280_temperature;BME280_humidity;BME280_pressure;Samples;Min_cycle;Max_cycle;Signal;HPM_P1;HPM_P2
2021/12/15 00:01:18;;;;;;;;;;;25.60;28.50;;;;;;508989;234;1168;-47
2021/12/15 00:03:19;;;;;;;;;;;25.60;28.50;;;;;;508936;234;1236;-47
2021/12/15 00:05:22;;;;;;;;;;;25.60;28.50;;;;;;509447;234;1456;-47
2021/12/15 00:07:22;;;;;;;;;;;25.70;28.60;;;;;;508888;234;2310;-47
2021/12/15 00:09:23;;;;;;;;;;;25.60;28.50;;;;;;508952;234;2117;-47
2021/12/15 00:11:31;;;;;;;;;;;25.70;28.50;;;;;;509004;234;1355;-47
2021/12/15 00:13:26;;;;;;;;;;;25.70;28.50;;;;;;508665;233;1357;-47
2021/12/15 00:15:28;;;;;;;;;;;25.70;28.50;;;;;;509137;234;1201;-47
2021/12/15 00:17:29;;;;;;;;;;;25.70;28.50;;;;;;509379;234;1195;-47
2021/12/15 00:19:30;;;;;;;;;;;25.70;28.50;;;;;;509101;234;1123;-47
2021/12/15 00:21:32;;;;;;;;;;;25.70;28.50;;;;;;509224;234;1291;-47
2021/12/15 00:23:33;;;;;;;;;;;25.70;28.50;;;;;;508960;234;1160;-47
2021/12/15 00:25:34;;;;;;;;;;;25.70;28.50;;;;;;509135;234;1144;-47
2021/12/15 00:27:36;;;;;;;;;;;25.70;28.50;;;;;;509017;234;1216;-47
2021/12/15 00:29:37;;;;;;;;;;;25.70;28.50;;;;;;509466;234;2108;-47
2021/12/15 00:31:38;;;;;;;;;;;25.70;28.50;;;;;;509382;234;1285;-47
2021/12/15 00:33:40;;;;;;;;;;;25.70;28.50;;;;;;509470;234;1035;-47
2021/12/15 00:35:41;;;;;;;;;;;25.70;28.50;;;;;;508990;234;1147;-47
2021/12/15 00:37:42;;;;;;;;;;;25.70;28.50;;;;;;509446;234;1291;-46
2021/12/15 00:39:44;;;;;;;;;;;25.70;28.50;;;;;;509453;234;1149;-47
2021/12/15 00:41:45;;;;;;;;;;;25.70;28.50;;;;;;508917;234;1525;-47
2021/12/15 00:43:46;;;;;;;;;;;25.70;28.50;;;;;;509273;234;1051;-47
2021/12/15 00:45:48;;;;;;;;;;;25.80;28.50;;;;;;508916;234;1316;-47
2021/12/15 00:47:49;;;;;;;;;;;25.70;28.50;;;;;;509402;234;1040;-47
2021/12/15 00:49:51;;;;;;;;;;;25.70;28.50;;;;;;509129;234;2108;-47
2021/12/15 00:51:52;;;;;;;;;;;25.80;28.50;;;;;;509008;234;1330;-47
2021/12/15 00:53:54;;;;;;;;;;;25.80;28.50;;;;;;509461;234;1008;-47
2021/12/15 00:55:55;;;;;;;;;;;25.80;28.50;;;;;;509202;234;1425;-47
2021/12/15 00:57:56;;;;;;;;;;;25.70;28.50;;;;;;508955;234;1124;-47
2021/12/15 00:59:57;;;;;;;;;;;25.70;28.50;;;;;;508925;234;1048;-47
2021/12/15 01:01:58;;;;;;;;;;;25.70;28.50;;;;;;509163;234;1193;-47
2021/12/15 01:04:00;;;;;;;;;;;25.70;28.50;;;;;;509425;234;985;-47
2021/12/15 01:06:04;;;;;;;;;;;25.70;28.50;;;;;;509297;234;1298;-47
2021/12/15 01:08:03;;;;;;;;;;;25.70;28.50;;;;;;509055;233;1630;-47
2021/12/15 01:10:04;;;;;;;;;;;25.80;28.50;;;;;;509439;234;2179;-47
2021/12/15 01:12:16;;;;;;;;;;;25.80;28.50;;;;;;509057;234;1201;-47
2021/12/15 01:21:11;;;;;;;;;;;25.80;28.50;;;;;;509428;233;1114;-47
2021/12/15 01:23:13;;;;;;;;;;;25.70;28.50;;;;;;509450;234;1222;-47
2021/12/15 01:25:13;;;;;;;;;;;25.70;28.50;;;;;;508917;234;2021;-47
2021/12/15 01:27:15;;;;;;;;;;;25.70;28.50;;;;;;509250;234;1477;-47
2021/12/15 01:29:16;;;;;;;;;;;25.80;28.60;;;;;;509418;234;2183;-47
2021/12/15 01:31:17;;;;;;;;;;;25.70;28.50;;;;;;509385;234;1241;-47
2021/12/15 01:33:19;;;;;;;;;;;25.80;28.50;;;;;;509200;234;1146;-47
2021/12/15 01:35:20;;;;;;;;;;;25.70;28.50;;;;;;509232;234;1044;-47
2021/12/15 01:37:21;;;;;;;;;;;25.70;28.50;;;;;;509062;234;1185;-47
2021/12/15 01:39:23;;;;;;;;;;;25.70;28.50;;;;;;508907;234;1029;-47
2021/12/15 01:41:24;;;;;;;;;;;25.80;28.60;;;;;;509318;234;1191;-47
2021/12/15 01:43:34;;;;;;;;;;;25.70;28.50;;;;;;508988;234;1235;-47
2021/12/15 01:47:46;;;;;;;;;;;25.70;28.50;;;;;;509390;233;1152;-47
2021/12/15 01:49:47;;;;;;;;;;;25.70;28.50;;;;;;509424;234;2109;-47
2021/12/15 01:51:49;;;;;;;;;;;25.80;28.60;;;;;;509047;234;1232;-47
2021/12/15 01:53:50;;;;;;;;;;;25.80;28.60;;;;;;508913;234;1243;-47
2021/12/15 01:55:52;;;;;;;;;;;25.80;28.50;;;;;;508930;234;1514;-47
2021/12/15 01:57:53;;;;;;;;;;;25.80;28.50;;;;;;509192;234;1179;-47
2021/12/15 01:59:54;;;;;;;;;;;25.80;28.50;;;;;;509455;234;1048;-47
2021/12/15 02:01:55;;;;;;;;;;;25.80;28.50;;;;;;509119;234;1500;-47
2021/12/15 02:03:57;;;;;;;;;;;25.80;28.50;;;;;;508967;234;1013;-47
2021/12/15 02:05:58;;;;;;;;;;;25.70;28.50;;;;;;509407;234;1338;-47
2021/12/15 02:08:00;;;;;;;;;;;25.70;28.50;;;;;;509290;234;1354;-47
2021/12/15 02:10:04;;;;;;;;;;;25.80;28.60;;;;;;508856;234;2267;-47
2021/12/15 02:12:05;;;;;;;;;;;25.70;28.50;;;;;;508813;234;2331;-47
2021/12/15 02:14:06;;;;;;;;;;;25.70;28.50;;;;;;508997;234;1197;-47
2021/12/15 02:16:08;;;;;;;;;;;25.70;28.50;;;;;;508949;234;1220;-47
2021/12/15 02:18:09;;;;;;;;;;;25.70;28.50;;;;;;509011;234;1177;-47
2021/12/15 02:20:10;;;;;;;;;;;25.70;28.60;;;;;;509194;234;1031;-47
2021/12/15 02:22:11;;;;;;;;;;;25.70;28.50;;;;;;509365;234;1325;-47
2021/12/15 02:24:13;;;;;;;;;;;25.70;28.50;;;;;;508984;234;1051;-47
2021/12/15 02:26:15;;;;;;;;;;;25.70;28.50;;;;;;509142;234;1442;-47
2021/12/15 02:28:15;;;;;;;;;;;25.70;28.50;;;;;;508939;234;2559;-47
2021/12/15 02:30:28;;;;;;;;;;;25.70;28.50;;;;;;509259;234;2171;-47
2021/12/15 02:32:34;;;;;;;;;;;25.70;28.50;;;;;;508458;234;2446;-47
2021/12/15 02:34:44;;;;;;;;;;;25.70;28.50;;;;;;508297;234;1375;-47
2021/12/15 02:39:14;;;;;;;;;;;25.70;28.50;;;;;;495784;240;1129;-47
2021/12/15 02:41:19;;;;;;;;;;;25.70;28.50;;;;;;496181;240;1974;-47
2021/12/15 02:43:14;;;;;;;;;;;25.80;28.60;;;;;;495986;240;2360;-47
2021/12/15 02:45:16;;;;;;;;;;;25.70;28.50;;;;;;508151;233;1185;-47
2021/12/15 02:47:18;;;;;;;;;;;25.70;28.50;;;;;;508880;234;993;-47
2021/12/15 02:49:19;;;;;;;;;;;25.80;28.60;;;;;;509039;234;2101;-47
2021/12/15 02:51:20;;;;;;;;;;;25.70;28.50;;;;;;509419;234;1235;-47
2021/12/15 02:53:22;;;;;;;;;;;25.70;28.60;;;;;;509457;234;1317;-47
2021/12/15 02:55:23;;;;;;;;;;;25.70;28.60;;;;;;509451;234;1047;-47
2021/12/15 02:57:24;;;;;;;;;;;25.70;28.60;;;;;;509129;234;1199;-47
2021/12/15 02:59:30;;;;;;;;;;;25.70;28.50;;;;;;509115;234;1239;-46
2021/12/15 03:01:34;;;;;;;;;;;25.70;28.50;;;;;;509035;233;2210;-47
2021/12/15 03:04:00;;;;;;;;;;;25.70;28.50;;;;;;508997;233;2369;-47
2021/12/15 03:05:46;;;;;;;;;;;25.70;28.50;;;;;;507747;234;2445;-47
2021/12/15 03:07:49;;;;;;;;;;;25.70;28.50;;;;;;508970;233;1925;-47
2021/12/15 03:16:57;;;;;;;;;;;25.70;28.50;;;;;;495668;240;1343;-47
2021/12/15 03:18:59;;;;;;;;;;;25.80;28.50;;;;;;508544;233;1206;-47
2021/12/15 03:21:00;;;;;;;;;;;25.80;28.50;;;;;;509337;234;1179;-47
2021/12/15 03:23:01;;;;;;;;;;;25.70;28.50;;;;;;508917;234;1314;-47
2021/12/15 03:25:03;;;;;;;;;;;25.80;28.50;;;;;;509462;234;1017;-47
2021/12/15 03:27:09;;;;;;;;;;;25.80;28.50;;;;;;508894;234;1275;-47
2021/12/15 03:34:07;;;;;;;;;;;25.80;28.50;;;;;;508968;234;1096;-47
2021/12/15 03:36:03;;;;;;;;;;;25.80;28.50;;;;;;508636;233;2434;-47
2021/12/15 03:38:01;;;;;;;;;;;25.80;28.50;;;;;;508766;233;2389;-47
2021/12/15 03:40:02;;;;;;;;;;;25.80;28.60;;;;;;508993;234;1079;-47
2021/12/15 03:42:06;;;;;;;;;;;25.70;28.50;;;;;;509351;234;1338;-47
2021/12/15 03:44:05;;;;;;;;;;;25.80;28.60;;;;;;508831;234;2078;-47
2021/12/15 03:46:06;;;;;;;;;;;25.70;28.50;;;;;;509328;234;1262;-47
2021/12/15 03:48:08;;;;;;;;;;;25.70;28.60;;;;;;509267;234;1140;-46
2021/12/15 03:50:09;;;;;;;;;;;25.70;28.60;;;;;;509457;234;2104;-47
2021/12/15 03:52:10;;;;;;;;;;;25.80;28.60;;;;;;508889;234;1362;-47
2021/12/15 03:54:12;;;;;;;;;;;25.70;28.50;;;;;;509001;234;1051;-47
2021/12/15 03:56:14;;;;;;;;;;;25.70;28.50;;;;;;509294;234;1684;-47
2021/12/15 03:58:14;;;;;;;;;;;25.70;28.50;;;;;;508996;234;2285;-47
2021/12/15 04:00:16;;;;;;;;;;;25.80;28.60;;;;;;508980;234;1209;-47
2021/12/15 04:02:17;;;;;;;;;;;25.80;28.60;;;;;;509387;234;1295;-47
2021/12/15 04:04:18;;;;;;;;;;;25.80;28.50;;;;;;509136;234;1340;-47
2021/12/15 04:06:20;;;;;;;;;;;25.80;28.50;;;;;;509419;234;1213;-47
2021/12/15 04:08:21;;;;;;;;;;;25.80;28.50;;;;;;509399;234;1017;-47
2021/12/15 04:10:22;;;;;;;;;;;25.80;28.60;;;;;;508938;234;2172;-46
2021/12/15 04:12:24;;;;;;;;;;;25.70;28.50;;;;;;508945;234;1348;-47
2021/12/15 04:14:31;;;;;;;;;;;25.80;28.60;;;;;;508959;234;1280;-46
2021/12/15 04:16:42;;;;;;;;;;;25.80;28.60;;;;;;508457;234;1950;-47
2021/12/15 04:18:29;;;;;;;;;;;25.80;28.60;;;;;;508477;233;2271;-47
2021/12/15 04:20:31;;;;;;;;;;;25.80;28.60;;;;;;509418;234;1218;-47
2021/12/15 04:22:32;;;;;;;;;;;25.80;28.60;;;;;;509371;234;1191;-47
2021/12/15 04:24:33;;;;;;;;;;;25.80;28.60;;;;;;509393;234;1234;-47
2021/12/15 04:26:35;;;;;;;;;;;25.80;28.60;;;;;;509283;234;1322;-47
2021/12/15 04:28:36;;;;;;;;;;;25.70;28.50;;;;;;509445;234;1055;-47
2021/12/15 04:30:38;;;;;;;;;;;25.70;28.60;;;;;;509008;234;2172;-47
2021/12/15 04:32:39;;;;;;;;;;;25.80;28.60;;;;;;508882;234;2165;-47
2021/12/15 04:34:40;;;;;;;;;;;25.80;28.60;;;;;;508960;234;1047;-46
2021/12/15 04:36:41;;;;;;;;;;;25.80;28.60;;;;;;508912;234;1316;-47
2021/12/15 04:38:43;;;;;;;;;;;25.80;28.60;;;;;;509319;234;1212;-47
2021/12/15 04:40:44;;;;;;;;;;;25.80;28.60;;;;;;509393;234;1150;-47
2021/12/15 04:42:45;;;;;;;;;;;25.80;28.60;;;;;;508988;234;1167;-47
2021/12/15 04:44:47;;;;;;;;;;;25.80;28.60;;;;;;508860;234;1310;-47
2021/12/15 04:46:48;;;;;;;;;;;25.80;28.60;;;;;;508854;234;1376;-47
2021/12/15 04:48:49;;;;;;;;;;;25.80;28.60;;;;;;509113;234;1146;-47
2021/12/15 04:50:51;;;;;;;;;;;25.80;28.60;;;;;;509401;234;2116;-47
2021/12/15 04:52:52;;;;;;;;;;;25.80;28.60;;;;;;508895;234;1225;-47
2021/12/15 04:54:54;;;;;;;;;;;25.80;28.60;;;;;;509481;234;1080;-47
2021/12/15 04:56:55;;;;;;;;;;;25.80;28.60;;;;;;509069;234;1220;-47
2021/12/15 04:58:56;;;;;;;;;;;25.80;28.60;;;;;;509011;234;1357;-47
2021/12/15 05:00:58;;;;;;;;;;;25.80;28.60;;;;;;508912;234;1242;-47
2021/12/15 05:02:59;;;;;;;;;;;25.80;28.60;;;;;;509015;234;1385;-47
2021/12/15 05:05:00;;;;;;;;;;;25.80;28.60;;;;;;508906;234;1162;-47
2021/12/15 05:07:01;;;;;;;;;;;25.80;28.60;;;;;;508987;234;1344;-47
2021/12/15 05:09:03;;;;;;;;;;;25.80;28.60;;;;;;509251;234;1235;-47
2021/12/15 05:11:04;;;;;;;;;;;25.80;28.50;;;;;;508829;234;2176;-47
2021/12/15 05:13:05;;;;;;;;;;;25.80;28.60;;;;;;509082;234;1156;-47
2021/12/15 05:15:07;;;;;;;;;;;25.80;28.60;;;;;;509321;234;1254;-47
2021/12/15 05:17:08;;;;;;;;;;;25.80;28.60;;;;;;508792;234;1793;-47
2021/12/15 05:19:09;;;;;;;;;;;25.80;28.60;;;;;;509004;234;1157;-47
2021/12/15 05:21:11;;;;;;;;;;;25.80;28.60;;;;;;508817;234;1224;-47
2021/12/15 05:23:14;;;;;;;;;;;25.80;28.60;;;;;;508850;234;2247;-47
2021/12/15 05:25:14;;;;;;;;;;;25.80;28.60;;;;;;508756;234;1777;-47
2021/12/15 05:27:15;;;;;;;;;;;25.80;28.60;;;;;;508993;234;1163;-47
2021/12/15 05:29:16;;;;;;;;;;;25.80;28.60;;;;;;509086;234;1140;-47
2021/12/15 05:31:18;;;;;;;;;;;25.80;28.60;;;;;;508840;234;2108;-47
2021/12/15 05:33:19;;;;;;;;;;;25.80;28.60;;;;;;509170;234;970;-47
2021/12/15 05:35:23;;;;;;;;;;;25.80;28.60;;;;;;509069;234;996;-47
2021/12/15 05:37:22;;;;;;;;;;;25.80;28.60;;;;;;508684;234;2348;-47
2021/12/15 05:39:23;;;;;;;;;;;25.80;28.60;;;;;;509206;234;1141;-47
2021/12/15 05:41:25;;;;;;;;;;;25.80;28.60;;;;;;509255;234;1095;-47
2021/12/15 05:43:26;;;;;;;;;;;25.80;28.60;;;;;;509325;234;1028;-47
2021/12/15 05:45:27;;;;;;;;;;;25.80;28.50;;;;;;508744;234;1113;-47
2021/12/15 05:47:29;;;;;;;;;;;25.80;28.60;;;;;;508734;234;1665;-47
2021/12/15 05:49:30;;;;;;;;;;;25.80;28.60;;;;;;509049;233;1059;-47
2021/12/15 05:51:31;;;;;;;;;;;25.80;28.60;;;;;;509170;234;2109;-46
2021/12/15 05:53:33;;;;;;;;;;;25.80;28.60;;;;;;509067;234;1057;-46
2021/12/15 05:55:34;;;;;;;;;;;25.80;28.60;;;;;;508825;234;1017;-47
2021/12/15 05:57:35;;;;;;;;;;;25.80;28.60;;;;;;508826;234;1170;-47
2021/12/15 05:59:37;;;;;;;;;;;25.80;28.60;;;;;;508968;234;1043;-46
2021/12/15 06:01:38;;;;;;;;;;;25.80;28.60;;;;;;508603;234;1293;-47
2021/12/15 06:03:39;;;;;;;;;;;25.80;28.60;;;;;;509080;234;1176;-47
2021/12/15 06:05:41;;;;;;;;;;;25.80;28.60;;;;;;508689;234;1436;-47
2021/12/15 06:07:42;;;;;;;;;;;25.80;28.60;;;;;;508740;234;1210;-47
2021/12/15 06:09:43;;;;;;;;;;;25.90;28.60;;;;;;508677;234;1114;-47
2021/12/15 06:11:48;;;;;;;;;;;25.90;28.60;;;;;;508586;234;1321;-47
2021/12/15 06:13:48;;;;;;;;;;;25.80;28.50;;;;;;508640;233;1425;-47
2021/12/15 06:15:48;;;;;;;;;;;25.90;28.60;;;;;;508437;234;1508;-47
2021/12/15 06:17:49;;;;;;;;;;;25.80;28.60;;;;;;508598;233;2331;-47
2021/12/15 06:19:50;;;;;;;;;;;25.80;28.60;;;;;;508684;234;1024;-47
2021/12/15 06:21:52;;;;;;;;;;;25.80;28.70;;;;;;508712;234;1253;-47
2021/12/15 06:23:53;;;;;;;;;;;25.80;28.70;;;;;;509082;234;1051;-47
2021/12/15 06:25:54;;;;;;;;;;;25.80;28.70;;;;;;508844;234;1127;-47
2021/12/15 06:27:56;;;;;;;;;;;25.70;28.60;;;;;;508543;234;1237;-47
2021/12/15 06:29:57;;;;;;;;;;;25.70;28.70;;;;;;508606;234;2175;-47
2021/12/15 06:31:59;;;;;;;;;;;25.70;28.70;;;;;;508613;234;1317;-47
2021/12/15 06:34:00;;;;;;;;;;;25.70;28.70;;;;;;508831;234;1044;-47
2021/12/15 06:36:03;;;;;;;;;;;25.70;28.70;;;;;;508833;234;1435;-47
2021/12/15 06:38:03;;;;;;;;;;;25.70;28.70;;;;;;508486;234;2098;-47
2021/12/15 06:40:07;;;;;;;;;;;25.80;28.80;;;;;;508806;234;1102;-47
2021/12/15 06:42:05;;;;;;;;;;;25.70;28.70;;;;;;508421;234;1998;-47
2021/12/15 06:44:08;;;;;;;;;;;25.80;28.70;;;;;;508798;234;1101;-47
2021/12/15 06:46:27;;;;;;;;;;;25.80;28.70;;;;;;508702;233;2105;-47
2021/12/15 06:58:10;;;;;;;;;;;25.80;28.70;;;;;;508407;234;1550;-46
2021/12/15 06:59:36;;;;;;;;;;;25.80;28.70;;;;;;507071;234;1325;-47
2021/12/15 07:01:39;;;;;;;;;;;25.80;28.70;;;;;;508503;234;1157;-47
2021/12/15 07:03:40;;;;;;;;;;;25.80;28.60;;;;;;508691;234;1194;-47
2021/12/15 07:05:42;;;;;;;;;;;25.80;28.60;;;;;;508546;234;1416;-47
2021/12/15 07:07:43;;;;;;;;;;;25.80;28.60;;;;;;508497;234;1160;-47
2021/12/15 07:09:44;;;;;;;;;;;25.80;28.60;;;;;;508855;234;1087;-47
2021/12/15 07:11:46;;;;;;;;;;;25.90;28.70;;;;;;508859;234;2179;-47
2021/12/15 07:13:47;;;;;;;;;;;25.80;28.60;;;;;;508637;234;1098;-47
2021/12/15 07:15:49;;;;;;;;;;;25.80;28.60;;;;;;508525;234;1496;-47
2021/12/15 07:17:51;;;;;;;;;;;25.80;28.60;;;;;;508291;234;2032;-47
2021/12/15 07:20:07;;;;;;;;;;;25.80;28.60;;;;;;508285;234;2222;-47
2021/12/15 07:22:09;;;;;;;;;;;25.80;28.60;;;;;;507980;234;1476;-47
2021/12/15 07:24:08;;;;;;;;;;;25.90;28.60;;;;;;508105;234;1794;-47
2021/12/15 07:26:09;;;;;;;;;;;25.90;28.60;;;;;;508375;234;1067;-47
2021/12/15 07:28:11;;;;;;;;;;;25.90;28.60;;;;;;508363;234;1237;-47
2021/12/15 07:30:12;;;;;;;;;;;25.90;28.70;;;;;;508447;234;2207;-47
2021/12/15 07:32:13;;;;;;;;;;;25.90;28.60;;;;;;502976;234;1301;-47
2021/12/15 07:34:15;;;;;;;;;;;25.80;28.60;;;;;;499388;238;1123;-47
2021/12/15 07:36:16;;;;;;;;;;;25.90;28.60;;;;;;499304;237;1044;-47
2021/12/15 07:38:17;;;;;;;;;;;25.90;28.60;;;;;;503970;234;1278;-47
2021/12/15 07:40:20;;;;;;;;;;;25.80;28.60;;;;;;508288;234;1057;-47
2021/12/15 07:42:29;;;;;;;;;;;25.80;28.60;;;;;;506724;234;2088;-47
2021/12/15 07:44:22;;;;;;;;;;;25.90;28.60;;;;;;507104;234;2017;-47
2021/12/15 07:46:23;;;;;;;;;;;25.90;28.60;;;;;;508395;234;1097;-47
2021/12/15 07:48:24;;;;;;;;;;;25.90;28.60;;;;;;508270;234;1847;-47
2021/12/15 07:50:25;;;;;;;;;;;25.90;28.60;;;;;;508602;234;2109;-47
2021/12/15 07:52:27;;;;;;;;;;;25.90;28.60;;;;;;508214;234;1103;-47
2021/12/15 07:54:28;;;;;;;;;;;25.90;28.60;;;;;;508260;234;1240;-47
2021/12/15 07:56:29;;;;;;;;;;;25.90;28.60;;;;;;508353;234;1163;-47
2021/12/15 07:58:31;;;;;;;;;;;25.90;28.70;;;;;;508365;234;1069;-47
2021/12/15 08:00:32;;;;;;;;;;;25.90;28.70;;;;;;508177;234;1162;-47
2021/12/15 08:02:33;;;;;;;;;;;25.90;28.60;;;;;;508110;234;1394;-47
2021/12/15 08:04:35;;;;;;;;;;;25.90;28.70;;;;;;508245;234;1125;-47
2021/12/15 08:06:36;;;;;;;;;;;25.90;28.60;;;;;;508287;234;1079;-47
2021/12/15 08:08:37;;;;;;;;;;;25.90;28.70;;;;;;508275;234;1063;-47
2021/12/15 08:10:40;;;;;;;;;;;25.90;28.70;;;;;;508287;234;2184;-47
2021/12/15 08:12:40;;;;;;;;;;;25.90;28.70;;;;;;508181;234;2189;-47
2021/12/15 08:14:42;;;;;;;;;;;25.90;28.70;;;;;;508215;234;1014;-47
2021/12/15 08:16:43;;;;;;;;;;;25.90;28.70;;;;;;508035;234;1337;-47
2021/12/15 08:18:44;;;;;;;;;;;26.00;28.70;;;;;;508064;234;1212;-47
2021/12/15 08:20:45;;;;;;;;;;;25.90;28.60;;;;;;508216;234;1100;-47
2021/12/15 08:22:47;;;;;;;;;;;25.90;28.60;;;;;;508094;234;1294;-47
2021/12/15 08:24:48;;;;;;;;;;;25.90;28.70;;;;;;508230;234;1083;-47
2021/12/15 08:26:50;;;;;;;;;;;25.90;28.70;;;;;;508175;234;1322;-47
2021/12/15 08:28:51;;;;;;;;;;;25.90;28.60;;;;;;508148;234;1174;-47
2021/12/15 08:30:53;;;;;;;;;;;26.00;28.60;;;;;;507997;234;2108;-47
2021/12/15 08:32:59;;;;;;;;;;;25.90;27.90;;;;;;501709;234;1087;-46
2021/12/15 08:35:01;;;;;;;;;;;25.90;28.60;;;;;;490977;241;1146;-46
2021/12/15 08:37:02;;;;;;;;;;;26.00;28.70;;;;;;491210;240;1337;-47
2021/12/15 08:39:03;;;;;;;;;;;25.90;28.70;;;;;;491117;240;1018;-47
2021/12/15 08:41:05;;;;;;;;;;;25.90;28.70;;;;;;490942;240;1254;-47
2021/12/15 08:43:07;;;;;;;;;;;25.90;28.70;;;;;;491084;240;1219;-46
2021/12/15 08:45:08;;;;;;;;;;;25.90;28.60;;;;;;490967;240;2230;-47
2021/12/15 08:47:09;;;;;;;;;;;25.90;28.60;;;;;;491063;240;1274;-46
2021/12/15 08:49:10;;;;;;;;;;;25.90;28.60;;;;;;491132;240;1057;-46
2021/12/15 08:51:12;;;;;;;;;;;25.90;28.60;;;;;;490955;240;2184;-47
2021/12/15 08:53:13;;;;;;;;;;;26.00;28.60;;;;;;491222;240;1029;-47
2021/12/15 08:55:14;;;;;;;;;;;26.00;28.60;;;;;;491068;240;1054;-47
2021/12/15 08:57:16;;;;;;;;;;;26.00;28.60;;;;;;490888;240;1238;-47
2021/12/15 08:59:18;;;;;;;;;;;26.00;28.60;;;;;;490875;240;1160;-47
2021/12/15 09:01:18;;;;;;;;;;;26.00;28.60;;;;;;490752;240;2110;-46
2021/12/15 09:03:20;;;;;;;;;;;26.00;28.60;;;;;;490808;240;1258;-46
2021/12/15 09:05:22;;;;;;;;;;;26.00;28.70;;;;;;490956;240;956;-47
2021/12/15 09:07:22;;;;;;;;;;;26.00;28.70;;;;;;491120;240;2128;-46
2021/12/15 09:09:25;;;;;;;;;;;26.00;28.70;;;;;;491090;240;1062;-46
2021/12/15 09:11:25;;;;;;;;;;;26.00;28.70;;;;;;490939;240;2228;-47
2021/12/15 09:13:30;;;;;;;;;;;26.00;28.70;;;;;;491297;240;938;-47
2021/12/15 09:15:28;;;;;;;;;;;26.00;28.60;;;;;;490984;240;2244;-46
2021/12/15 09:17:30;;;;;;;;;;;26.00;28.60;;;;;;491214;240;1744;-46
2021/12/15 09:19:31;;;;;;;;;;;25.90;28.70;;;;;;491178;240;1063;-46
2021/12/15 09:21:32;;;;;;;;;;;25.90;28.70;;;;;;491020;240;1416;-46
2021/12/15 09:23:33;;;;;;;;;;;25.90;28.60;;;;;;491039;240;1042;-46
2021/12/15 09:25:35;;;;;;;;;;;25.90;28.70;;;;;;490973;240;1245;-46
2021/12/15 09:27:36;;;;;;;;;;;26.00;28.70;;;;;;490916;240;1162;-46
2021/12/15 09:29:38;;;;;;;;;;;26.00;28.70;;;;;;490864;240;1167;-46
2021/12/15 09:31:40;;;;;;;;;;;25.90;28.70;;;;;;490834;240;2199;-46
2021/12/15 09:33:41;;;;;;;;;;;26.00;28.70;;;;;;488974;242;2349;-46
2021/12/15 09:35:42;;;;;;;;;;;26.00;28.70;;;;;;488917;242;1500;-46
2021/12/15 09:37:43;;;;;;;;;;;25.90;28.70;;;;;;489006;242;1170;-46
2021/12/15 09:39:44;;;;;;;;;;;26.00;28.70;;;;;;489074;242;1080;-46
2021/12/15 09:41:46;;;;;;;;;;;26.00;28.70;;;;;;488856;242;1140;-46
2021/12/15 09:43:48;;;;;;;;;;;26.00;28.70;;;;;;488931;242;1212;-46
2021/12/15 09:45:53;;;;;;;;;;;26.00;28.70;;;;;;488860;242;2101;-46
2021/12/15 09:48:03;;;;;;;;;;;26.00;28.70;;;;;;488622;242;2575;-46
2021/12/15 10:02:03;;;;;;;;;;;25.90;28.70;;;;;;489505;241;1290;-46
2021/12/15 10:04:17;;;;;;;;;;;26.00;28.70;;;;;;489313;242;2220;-46
2021/12/15 10:06:22;;;;;;;;;;;26.00;28.70;;;;;;489488;242;2133;-46
2021/12/15 10:10:45;;;;;;;;;;;26.00;28.70;;;;;;489244;241;808;-46
2021/12/15 10:17:25;;;;;;;;;;;26.00;28.70;;;;;;489589;242;2224;-46
2021/12/15 10:17:29;;;;;;;;;;;26.00;28.70;;;;;;488586;241;1128;-45
2021/12/15 10:19:24;;;;;;;;;;;26.00;28.60;;;;;;489677;242;2049;-46
2021/12/15 10:21:26;;;;;;;;;;;26.00;28.60;;;;;;489513;242;1139;-46
2021/12/15 10:23:34;;;;;;;;;;;26.10;28.60;;;;;;489134;242;1109;-46
2021/12/15 10:25:28;;;;;;;;;;;26.20;28.70;;;;;;489623;242;2186;-46
2021/12/15 10:27:29;;;;;;;;;;;26.10;28.60;;;;;;489400;242;1034;-46
2021/12/15 10:29:31;;;;;;;;;;;26.10;28.60;;;;;;488978;242;837;-46
2021/12/15 10:31:32;;;;;;;;;;;26.20;28.70;;;;;;489586;242;1202;-46
2021/12/15 10:33:33;;;;;;;;;;;26.10;28.60;;;;;;489133;242;2181;-46
2021/12/15 10:35:35;;;;;;;;;;;26.10;28.60;;;;;;489553;242;958;-46
2021/12/15 10:37:36;;;;;;;;;;;26.10;28.60;;;;;;489500;242;1108;-46
2021/12/15 10:39:37;;;;;;;;;;;26.10;28.60;;;;;;489105;242;787;-46
2021/12/15 10:41:39;;;;;;;;;;;26.20;28.60;;;;;;489214;242;1211;-46
2021/12/15 10:43:40;;;;;;;;;;;26.20;28.70;;;;;;489635;242;1237;-46
2021/12/15 10:45:41;;;;;;;;;;;26.20;28.70;;;;;;489154;242;1227;-46
2021/12/15 10:47:43;;;;;;;;;;;26.20;28.70;;;;;;489444;242;1270;-46
2021/12/15 10:49:44;;;;;;;;;;;26.20;28.70;;;;;;489520;242;936;-46
2021/12/15 10:51:47;;;;;;;;;;;26.20;28.70;;;;;;489266;242;2201;-46
2021/12/15 10:53:47;;;;;;;;;;;26.20;28.70;;;;;;489324;242;1935;-46
2021/12/15 10:55:48;;;;;;;;;;;26.20;28.70;;;;;;489693;242;1157;-46
2021/12/15 10:57:50;;;;;;;;;;;26.20;28.70;;;;;;489612;242;845;-46
2021/12/15 10:59:51;;;;;;;;;;;26.20;28.70;;;;;;489137;242;812;-46
2021/12/15 11:01:52;;;;;;;;;;;26.10;28.60;;;;;;489542;242;1228;-46
2021/12/15 11:03:54;;;;;;;;;;;26.20;28.70;;;;;;489128;242;1192;-46
2021/12/15 11:05:55;;;;;;;;;;;26.20;28.70;;;;;;489623;242;1207;-46
2021/12/15 11:07:57;;;;;;;;;;;26.20;28.70;;;;;;489609;242;1094;-46
2021/12/15 11:09:58;;;;;;;;;;;26.20;28.70;;;;;;489586;242;828;-46
2021/12/15 11:11:59;;;;;;;;;;;26.20;28.70;;;;;;489395;242;2189;-46
2021/12/15 11:14:00;;;;;;;;;;;26.20;28.70;;;;;;488910;241;1194;-46
2021/12/15 11:16:02;;;;;;;;;;;26.20;28.80;;;;;;489212;242;863;-46
2021/12/15 11:18:03;;;;;;;;;;;26.20;28.80;;;;;;489191;242;1495;-46
2021/12/15 11:20:04;;;;;;;;;;;26.10;28.70;;;;;;489108;242;1095;-47
2021/12/15 11:22:06;;;;;;;;;;;26.10;28.80;;;;;;489643;242;1263;-46
2021/12/15 11:24:07;;;;;;;;;;;26.00;28.80;;;;;;489665;242;977;-46
2021/12/15 11:26:08;;;;;;;;;;;26.00;28.80;;;;;;489663;242;858;-46
2021/12/15 11:28:10;;;;;;;;;;;26.00;28.80;;;;;;489701;242;1032;-47
2021/12/15 11:30:11;;;;;;;;;;;26.00;28.80;;;;;;489264;242;819;-46
2021/12/15 11:32:12;;;;;;;;;;;25.90;28.90;;;;;;489495;242;2181;-47
2021/12/15 11:34:14;;;;;;;;;;;25.80;28.90;;;;;;489138;242;1190;-46
2021/12/15 11:36:15;;;;;;;;;;;25.70;29.00;;;;;;489044;242;1182;-46
2021/12/15 11:38:16;;;;;;;;;;;25.60;29.10;;;;;;489594;242;1233;-46
2021/12/15 11:40:18;;;;;;;;;;;25.50;29.10;;;;;;489224;242;1361;-46
2021/12/15 11:42:19;;;;;;;;;;;25.40;29.30;;;;;;489590;242;1071;-47
2021/12/15 11:44:20;;;;;;;;;;;25.30;29.30;;;;;;489689;242;904;-47
2021/12/15 11:46:22;;;;;;;;;;;25.20;29.40;;;;;;489540;242;1248;-46
2021/12/15 11:48:23;;;;;;;;;;;25.10;29.60;;;;;;489067;242;1053;-46
2021/12/15 11:50:24;;;;;;;;;;;25.00;29.70;;;;;;489073;242;1106;-46
2021/12/15 11:52:26;;;;;;;;;;;24.90;29.70;;;;;;489657;242;2205;-46
2021/12/15 11:54:27;;;;;;;;;;;24.90;29.80;;;;;;489710;242;1076;-47
2021/12/15 11:56:28;;;;;;;;;;;24.70;29.90;;;;;;489160;242;1517;-46
2021/12/15 11:58:30;;;;;;;;;;;24.70;30.00;;;;;;489713;242;1014;-46
2021/12/15 12:00:31;;;;;;;;;;;24.60;30.00;;;;;;489150;242;842;-46
2021/12/15 12:02:32;;;;;;;;;;;24.60;30.10;;;;;;489631;242;1175;-46
2021/12/15 12:04:34;;;;;;;;;;;24.50;30.20;;;;;;489162;242;1180;-46
2021/12/15 12:06:35;;;;;;;;;;;24.50;30.20;;;;;;489575;242;1417;-46
2021/12/15 12:08:36;;;;;;;;;;;24.50;30.30;;;;;;489167;242;1068;-46
2021/12/15 12:10:43;;;;;;;;;;;24.50;30.30;;;;;;489487;242;1199;-46
2021/12/15 12:12:46;;;;;;;;;;;24.40;30.40;;;;;;489180;242;2188;-46
2021/12/15 12:14:43;;;;;;;;;;;24.40;30.50;;;;;;489739;242;2073;-46
2021/12/15 12:16:43;;;;;;;;;;;24.30;30.50;;;;;;489217;242;2352;-46
2021/12/15 12:18:44;;;;;;;;;;;24.30;30.60;;;;;;489690;242;1366;-46
2021/12/15 12:20:45;;;;;;;;;;;24.20;30.60;;;;;;489654;242;1164;-46
2021/12/15 12:22:47;;;;;;;;;;;24.20;30.70;;;;;;489278;242;1057;-46
2021/12/15 12:24:48;;;;;;;;;;;24.20;30.60;;;;;;489737;242;845;-46
2021/12/15 12:26:49;;;;;;;;;;;24.20;30.70;;;;;;489185;242;1195;-46
2021/12/15 12:28:51;;;;;;;;;;;24.10;30.80;;;;;;489124;242;1067;-46
2021/12/15 12:30:52;;;;;;;;;;;24.10;30.90;;;;;;488903;242;1329;-46
2021/12/15 12:32:53;;;;;;;;;;;24.00;30.90;;;;;;488866;242;2190;-46
2021/12/15 12:34:55;;;;;;;;;;;24.10;31.00;;;;;;488944;242;1232;-46
2021/12/15 12:36:56;;;;;;;;;;;24.00;30.90;;;;;;488724;242;1333;-46
2021/12/15 12:38:57;;;;;;;;;;;24.00;30.90;;;;;;488872;242;1224;-46
2021/12/15 12:40:59;;;;;;;;;;;24.00;30.90;;;;;;488654;242;1315;-46
2021/12/15 12:43:00;;;;;;;;;;;24.00;31.00;;;;;;488560;242;1301;-46
2021/12/15 12:45:01;;;;;;;;;;;24.00;31.00;;;;;;488698;242;1119;-46
2021/12/15 12:47:06;;;;;;;;;;;23.90;31.10;;;;;;488972;242;1172;-46
2021/12/15 12:49:49;;;;;;;;;;;23.90;31.10;;;;;;488897;242;2013;-46